Airfield :
LOGIN :

Register | Disclaimer

   EN    FR    IT 

 










Legend :    VFR   Marginal VFR   IFR   Intensive IFR   Very Intensive IFR
Visi :
Ceiling :
>= 8 km
>= 3000ft
5 to 8 km
1000 to 3000 ft
1500m to 5 km
500 to 1000 ft
800 to 1500m
200 to 500 ft
< 800m
< 200 ft
Symbols :   Thunderstorms  Fog  Heavy snow  Heavy precipitations  Wind > 20 kt
SIGMETs :     Misc.  Thunderstorms  Icing  Turbulence  Mountain Waves  Volcanic Ashes






- Airport Elevation : 146 ft
- IATA code : RKE


EKRK - Roskilde Tune

CURRENT METAR :
  • 161820Z AUTO 26006KT 2500 -RA BR OVC006/// 08/08 Q0990

EXPIRED METARs :
  • 161750Z AUTO 25007KT 3100 -RA BR OVC009/// 08/07 Q0991
  • 161720Z AUTO 27009KT 3700 -RA BR FEW008/// OVC020/// 08/07 Q0991
  • 161650Z AUTO 26014KT 3600 +DZ BR OVC006/// 08/07 Q0991
  • 161620Z AUTO 25013KT 220V280 3500 DZ BR BKN010/// OVC056/// 10/09 Q0991
  • 161550Z AUTO 23016KT 5000 FEW009/// FEW032/// BKN054/// 10/09 Q0991

TAF TAF EKRK
Valid from the 16 at 18:00 until the 17 at 03:00 UTC


161721Z 1618/1703 23015KT 9999 BKN020
TEMPO 1618/1622 2500 RA BKN008
TEMPO 1622/1703 24018G30KT 4000 SHRA BKN014CB



MET'MAP, your aeronautical weather chart ! - Copyright ORBIFLY December 2007 - Disclaimer

ORBIFLY MET'MAP TEAM :

Programming & Development : Alexandra Zaïnal
Concept & original design : Baudouin d'Aumeries
Assistance for programming : Marc-Olivier Méhu
Technical & hardware support : Manuel Goepfert

Contact : metmap@orbifly.com




SOURCES & CREDITS :

   NOAA